createdAt,value
2017-02-01T00:00:04.837Z,995.69
2017-02-01T00:00:45.359Z,995.66
2017-02-01T00:01:25.794Z,995.68
2017-02-01T00:02:06.234Z,995.66
2017-02-01T00:02:46.687Z,995.6
2017-02-01T00:03:27.127Z,995.64
2017-02-01T00:04:07.567Z,995.62
2017-02-01T00:04:48.037Z,995.6
2017-02-01T00:05:28.550Z,995.61
2017-02-01T00:06:08.973Z,995.61
2017-02-01T00:06:49.395Z,995.64
2017-02-01T00:07:29.846Z,995.62
2017-02-01T00:08:10.276Z,995.64
2017-02-01T00:08:50.788Z,995.63
2017-02-01T00:09:31.275Z,995.61
2017-02-01T00:10:11.720Z,995.65
2017-02-01T00:10:52.146Z,995.66
2017-02-01T00:11:32.605Z,995.65
2017-02-01T00:12:13.044Z,995.66
2017-02-01T00:12:53.520Z,995.7
2017-02-01T00:13:33.981Z,995.71
2017-02-01T00:14:14.422Z,995.7
2017-02-01T00:14:54.904Z,995.69
2017-02-01T00:15:35.334Z,995.67
2017-02-01T00:16:15.812Z,995.69
2017-02-01T00:16:56.259Z,995.71
2017-02-01T00:17:36.709Z,995.72
2017-02-01T00:18:17.170Z,995.69
2017-02-01T00:18:57.641Z,995.7
2017-02-01T00:19:38.090Z,995.71
2017-02-01T00:20:18.537Z,995.67
2017-02-01T00:20:59.014Z,995.74
2017-02-01T00:21:39.511Z,995.74
2017-02-01T00:22:19.933Z,995.74
2017-02-01T00:23:00.365Z,995.7
2017-02-01T00:23:40.842Z,995.7
2017-02-01T00:24:21.290Z,995.72
2017-02-01T00:26:39.330Z,995.66
2017-02-01T00:27:19.776Z,995.65
2017-02-01T00:28:00.247Z,995.72
2017-02-01T00:28:40.742Z,995.7
2017-02-01T00:29:21.178Z,995.68
2017-02-01T00:30:01.650Z,995.66
2017-02-01T00:30:42.117Z,995.7
2017-02-01T00:31:22.564Z,995.67
2017-02-01T00:32:03.079Z,995.66
2017-02-01T00:32:43.542Z,995.63
2017-02-01T00:33:23.999Z,995.69
2017-02-01T00:34:04.465Z,995.66
2017-02-01T00:34:44.950Z,995.64
2017-02-01T00:35:25.388Z,995.68
2017-02-01T00:36:05.818Z,995.63
2017-02-01T00:36:46.306Z,995.63
2017-02-01T00:37:26.742Z,995.63
2017-02-01T00:38:07.208Z,995.64
2017-02-01T00:38:47.681Z,995.69
2017-02-01T00:39:28.138Z,995.67
2017-02-01T00:40:08.603Z,995.71
2017-02-01T00:40:49.008Z,995.71
2017-02-01T00:41:29.485Z,995.68
2017-02-01T00:42:10.874Z,995.68
2017-02-01T00:42:51.300Z,995.69
2017-02-01T00:43:31.762Z,995.66
2017-02-01T00:44:12.174Z,995.68
2017-02-01T00:44:52.611Z,995.67
2017-02-01T00:45:33.063Z,995.68
2017-02-01T00:46:13.505Z,995.68
2017-02-01T00:46:53.954Z,995.67
2017-02-01T00:47:34.386Z,995.68
2017-02-01T00:48:14.840Z,995.66
2017-02-01T00:48:55.275Z,995.7
2017-02-01T00:49:35.749Z,995.69
2017-02-01T00:50:16.176Z,995.7
2017-02-01T00:50:56.693Z,995.69
2017-02-01T00:51:37.135Z,995.67
2017-02-01T00:52:17.592Z,995.65
2017-02-01T00:52:58.047Z,995.69
2017-02-01T00:53:38.482Z,995.71
2017-02-01T00:54:18.936Z,995.68
2017-02-01T00:54:59.387Z,995.65
2017-02-01T00:55:39.859Z,995.7
2017-02-01T00:56:20.298Z,995.69
2017-02-01T00:57:00.783Z,995.66
2017-02-01T00:57:41.205Z,995.65
2017-02-01T00:58:21.651Z,995.64
2017-02-01T00:59:02.114Z,995.67
2017-02-01T00:59:42.606Z,995.67
2017-02-01T01:00:23.078Z,995.68
2017-02-01T01:01:03.553Z,995.64
2017-02-01T01:01:44.019Z,995.65
2017-02-01T01:02:24.479Z,995.64
2017-02-01T01:03:04.938Z,995.65
2017-02-01T01:03:45.347Z,995.68
2017-02-01T01:04:25.794Z,995.66
2017-02-01T01:05:06.248Z,995.66
2017-02-01T01:05:46.716Z,995.65
2017-02-01T01:06:27.189Z,995.63
2017-02-01T01:07:07.641Z,995.62
2017-02-01T01:07:48.108Z,995.64
2017-02-01T01:08:28.563Z,995.63
2017-02-01T01:09:09.012Z,995.57
2017-02-01T01:09:49.486Z,995.62
2017-02-01T01:10:29.946Z,995.64
2017-02-01T01:11:10.388Z,995.65
2017-02-01T01:11:50.838Z,995.66
2017-02-01T01:12:31.273Z,995.65
2017-02-01T01:13:11.764Z,995.65
2017-02-01T01:13:52.326Z,995.71
2017-02-01T01:14:32.768Z,995.67
2017-02-01T01:15:13.207Z,995.7
2017-02-01T01:15:53.674Z,995.72
2017-02-01T01:16:34.153Z,995.73
2017-02-01T01:17:14.595Z,995.73
2017-02-01T01:17:56.034Z,995.75
2017-02-01T01:18:36.469Z,995.76
2017-02-01T01:19:16.925Z,995.8
2017-02-01T01:19:57.362Z,995.79
2017-02-01T01:20:37.797Z,995.79
2017-02-01T01:21:18.243Z,995.8
2017-02-01T01:21:58.684Z,995.78
2017-02-01T01:22:39.142Z,995.78
2017-02-01T01:23:19.627Z,995.78
2017-02-01T01:24:00.072Z,995.82
2017-02-01T01:24:40.562Z,995.79
2017-02-01T01:25:20.978Z,995.79
2017-02-01T01:26:01.443Z,995.72
2017-02-01T01:26:41.889Z,995.75
2017-02-01T01:27:22.343Z,995.76
2017-02-01T01:28:02.803Z,995.75
2017-02-01T01:28:43.277Z,995.77
2017-02-01T01:29:23.734Z,995.79
2017-02-01T01:30:04.196Z,995.81
2017-02-01T01:30:44.639Z,995.8
2017-02-01T01:31:25.095Z,995.78
2017-02-01T01:32:05.539Z,995.79
2017-02-01T01:32:45.987Z,995.8
2017-02-01T01:33:26.446Z,995.8
2017-02-01T01:34:06.907Z,995.81
2017-02-01T01:34:47.342Z,995.75
2017-02-01T01:35:27.776Z,995.77
2017-02-01T01:36:08.259Z,995.78
2017-02-01T01:36:48.689Z,995.74
2017-02-01T01:37:29.146Z,995.79
2017-02-01T01:38:09.615Z,995.76
2017-02-01T01:38:50.104Z,995.83
2017-02-01T01:39:30.552Z,995.76
2017-02-01T01:40:10.954Z,995.75
2017-02-01T01:40:51.416Z,995.79
2017-02-01T01:41:31.884Z,995.74
2017-02-01T01:42:12.347Z,995.74
2017-02-01T01:42:52.782Z,995.75
2017-02-01T01:43:33.226Z,995.74
2017-02-01T01:44:13.662Z,995.72
2017-02-01T01:44:54.090Z,995.71
2017-02-01T01:45:34.527Z,995.74
2017-02-01T01:46:15.011Z,995.73
2017-02-01T01:46:55.446Z,995.71
2017-02-01T01:47:35.937Z,995.74
2017-02-01T01:48:16.370Z,995.71
2017-02-01T01:48:56.802Z,995.71
2017-02-01T01:49:37.251Z,995.67
2017-02-01T01:50:17.687Z,995.7
2017-02-01T01:50:58.143Z,995.69
2017-02-01T01:51:38.554Z,995.7
2017-02-01T01:52:18.984Z,995.69
2017-02-01T01:52:59.488Z,995.72
2017-02-01T01:53:39.967Z,995.69
2017-02-01T01:54:20.456Z,995.65
2017-02-01T01:55:00.863Z,995.68
2017-02-01T01:55:41.372Z,995.65
2017-02-01T01:56:21.821Z,995.65
2017-02-01T01:57:02.256Z,995.65
2017-02-01T01:57:42.705Z,995.65
2017-02-01T01:58:23.147Z,995.65
2017-02-01T01:59:03.609Z,995.69
2017-02-01T01:59:44.055Z,995.71
2017-02-01T02:00:24.572Z,995.65
2017-02-01T02:01:05.037Z,995.62
2017-02-01T02:01:45.511Z,995.62
2017-02-01T02:02:25.961Z,995.65
2017-02-01T02:03:06.408Z,995.61
2017-02-01T02:03:46.864Z,995.61
2017-02-01T02:04:27.308Z,995.6
2017-02-01T02:05:07.769Z,995.6
2017-02-01T02:05:48.233Z,995.65
2017-02-01T02:06:28.655Z,995.59
2017-02-01T02:07:09.132Z,995.61
2017-02-01T02:07:49.556Z,995.6
2017-02-01T02:08:30.059Z,995.61
2017-02-01T02:09:10.496Z,995.65
2017-02-01T02:09:50.931Z,995.64
2017-02-01T02:12:19.075Z,995.62
2017-02-01T02:12:59.538Z,995.61
2017-02-01T02:13:40.012Z,995.59
2017-02-01T02:14:20.451Z,995.59
2017-02-01T02:15:00.924Z,995.62
2017-02-01T02:15:41.401Z,995.59
2017-02-01T02:16:21.829Z,995.6
2017-02-01T02:17:02.279Z,995.58
2017-02-01T02:17:42.735Z,995.57
2017-02-01T02:18:23.220Z,995.58
2017-02-01T02:19:03.655Z,995.6
2017-02-01T02:19:44.136Z,995.59
2017-02-01T02:20:24.551Z,995.57
2017-02-01T02:21:04.995Z,995.59
2017-02-01T02:21:45.492Z,995.54
2017-02-01T02:22:25.936Z,995.55
2017-02-01T02:23:06.400Z,995.52
2017-02-01T02:23:46.821Z,995.49
2017-02-01T02:24:27.302Z,995.5
2017-02-01T02:25:07.765Z,995.48
2017-02-01T02:25:48.206Z,995.45
2017-02-01T02:26:28.644Z,995.49
2017-02-01T02:27:09.084Z,995.49
2017-02-01T02:27:49.557Z,995.46
2017-02-01T02:28:30.021Z,995.42
2017-02-01T02:29:10.468Z,995.43
2017-02-01T02:29:50.924Z,995.44
2017-02-01T02:30:31.351Z,995.49
2017-02-01T02:31:11.833Z,995.46
2017-02-01T02:31:52.345Z,995.4
2017-02-01T02:32:32.846Z,995.42
2017-02-01T02:33:13.268Z,995.35
2017-02-01T02:33:53.718Z,995.44
2017-02-01T02:34:34.140Z,995.43
2017-02-01T02:35:14.606Z,995.42
2017-02-01T02:35:55.036Z,995.42
2017-02-01T02:36:35.555Z,995.42
2017-02-01T02:37:15.954Z,995.41
2017-02-01T02:37:56.422Z,995.41
2017-02-01T02:38:36.888Z,995.45
2017-02-01T02:39:17.306Z,995.44
2017-02-01T02:39:57.798Z,995.45
2017-02-01T02:40:38.206Z,995.43
2017-02-01T02:41:18.662Z,995.41
2017-02-01T02:41:59.110Z,995.41
2017-02-01T02:42:39.578Z,995.44
2017-02-01T02:43:20.041Z,995.37
2017-02-01T02:44:00.507Z,995.37
2017-02-01T02:44:40.944Z,995.37
2017-02-01T02:45:21.389Z,995.41
2017-02-01T02:46:01.833Z,995.38
2017-02-01T02:46:42.280Z,995.42
2017-02-01T02:47:22.762Z,995.4
2017-02-01T02:48:03.219Z,995.41
2017-02-01T02:48:43.701Z,995.44
2017-02-01T02:49:24.137Z,995.4
2017-02-01T02:50:04.613Z,995.36
2017-02-01T02:50:45.094Z,995.41
2017-02-01T02:51:25.548Z,995.42
2017-02-01T02:52:05.980Z,995.41
2017-02-01T02:53:58.596Z,995.42
2017-02-01T02:54:39.048Z,995.42
2017-02-01T02:55:19.524Z,995.41
2017-02-01T02:55:59.985Z,995.43
2017-02-01T02:56:40.423Z,995.42
2017-02-01T02:57:20.893Z,995.39
2017-02-01T02:58:01.365Z,995.39
2017-02-01T02:58:41.785Z,995.42
2017-02-01T02:59:22.248Z,995.4
2017-02-01T03:00:02.660Z,995.37
2017-02-01T03:00:43.162Z,995.39
2017-02-01T03:01:23.606Z,995.36
2017-02-01T03:02:04.036Z,995.41
2017-02-01T03:02:44.537Z,995.39
2017-02-01T03:03:24.982Z,995.38
2017-02-01T03:04:05.437Z,995.41
2017-02-01T03:04:45.893Z,995.4
2017-02-01T03:05:26.320Z,995.4
2017-02-01T03:06:06.818Z,995.4
2017-02-01T03:06:47.220Z,995.39
2017-02-01T03:07:27.745Z,995.42
2017-02-01T03:08:08.224Z,995.4
2017-02-01T03:08:48.644Z,995.4
2017-02-01T03:09:29.111Z,995.4
2017-02-01T03:10:09.564Z,995.37
2017-02-01T03:10:50.036Z,995.37
2017-02-01T03:11:30.510Z,995.38
2017-02-01T03:12:10.992Z,995.36
2017-02-01T03:12:51.436Z,995.36
2017-02-01T03:13:31.894Z,995.3
2017-02-01T03:14:12.350Z,995.31
2017-02-01T03:14:52.781Z,995.29
2017-02-01T03:15:33.257Z,995.28
2017-02-01T03:16:13.687Z,995.28
2017-02-01T03:16:54.165Z,995.26
2017-02-01T03:17:34.641Z,995.28
2017-02-01T03:18:15.055Z,995.26
2017-02-01T03:20:27.963Z,995.2
2017-02-01T03:21:08.416Z,995.24
2017-02-01T03:21:48.887Z,995.2
2017-02-01T03:22:29.331Z,995.25
2017-02-01T03:23:09.791Z,995.25
2017-02-01T03:23:50.260Z,995.24
2017-02-01T03:24:30.763Z,995.23
2017-02-01T03:25:11.200Z,995.18
2017-02-01T03:25:51.657Z,995.21
2017-02-01T03:26:32.116Z,995.19
2017-02-01T03:27:12.538Z,995.18
2017-02-01T03:27:52.965Z,995.16
2017-02-01T03:28:33.421Z,995.15
2017-02-01T03:29:13.910Z,995.1
2017-02-01T03:29:54.374Z,995.12
2017-02-01T03:30:34.816Z,995.08
2017-02-01T03:31:15.269Z,995.1
2017-02-01T03:31:55.728Z,995.09
2017-02-01T03:32:36.185Z,995.09
2017-02-01T03:33:16.626Z,995.09
2017-02-01T03:33:57.062Z,995.08
2017-02-01T03:34:37.522Z,995.09
2017-02-01T03:35:17.949Z,995.07
2017-02-01T03:35:58.418Z,995.09
2017-02-01T03:36:38.846Z,995.07
2017-02-01T03:37:19.368Z,995.06
2017-02-01T03:37:59.808Z,995.03
2017-02-01T03:38:40.244Z,995.06
2017-02-01T03:39:20.692Z,995.08
2017-02-01T03:40:01.156Z,995.08
2017-02-01T03:40:41.588Z,995.07
2017-02-01T03:41:22.040Z,995.08
2017-02-01T03:42:02.532Z,995.1
2017-02-01T03:42:42.981Z,995.08
2017-02-01T03:43:23.434Z,995.1
2017-02-01T03:44:03.863Z,995.12
2017-02-01T03:44:44.314Z,995.12
2017-02-01T03:45:24.747Z,995.13
2017-02-01T03:46:05.281Z,995.1
2017-02-01T03:46:45.718Z,995.12
2017-02-01T03:47:26.154Z,995.1
2017-02-01T03:48:06.672Z,995.12
2017-02-01T03:48:47.140Z,995.11
2017-02-01T03:49:27.587Z,995.12
2017-02-01T03:50:08.070Z,995.13
2017-02-01T03:50:48.521Z,995.15
2017-02-01T03:51:28.975Z,995.16
2017-02-01T03:52:09.418Z,995.18
2017-02-01T03:52:49.876Z,995.21
2017-02-01T03:53:30.336Z,995.17
2017-02-01T03:54:10.803Z,995.18
2017-02-01T03:54:51.296Z,995.15
2017-02-01T03:55:31.760Z,995.19
2017-02-01T03:56:12.233Z,995.16
2017-02-01T03:56:52.666Z,995.2
2017-02-01T03:57:33.081Z,995.15
2017-02-01T03:58:13.562Z,995.2
2017-02-01T03:58:53.990Z,995.21
2017-02-01T03:59:34.491Z,995.25
2017-02-01T04:00:14.945Z,995.2
2017-02-01T04:00:55.411Z,995.16
2017-02-01T04:01:35.831Z,995.23
2017-02-01T04:02:16.288Z,995.19
2017-02-01T04:02:56.771Z,995.22
2017-02-01T04:03:37.195Z,995.25
2017-02-01T04:04:17.695Z,995.28
2017-02-01T04:04:58.147Z,995.28
2017-02-01T04:05:38.613Z,995.29
2017-02-01T04:06:19.037Z,995.33
2017-02-01T04:06:59.492Z,995.34
2017-02-01T04:07:39.932Z,995.37
2017-02-01T04:08:20.383Z,995.38
2017-02-01T04:09:00.858Z,995.38
2017-02-01T04:09:41.328Z,995.38
2017-02-01T04:10:21.808Z,995.4
2017-02-01T04:11:02.981Z,995.42
2017-02-01T04:11:43.794Z,995.44
2017-02-01T04:12:24.588Z,995.47
2017-02-01T04:13:05.132Z,995.43
2017-02-01T04:13:45.552Z,995.42
2017-02-01T04:14:25.955Z,995.46
2017-02-01T04:15:06.323Z,995.48
2017-02-01T04:15:46.769Z,995.49
2017-02-01T04:16:27.433Z,995.42
2017-02-01T04:17:07.954Z,995.38
2017-02-01T04:17:48.426Z,995.42
2017-02-01T04:18:28.831Z,995.4
2017-02-01T04:19:09.220Z,995.42
2017-02-01T04:19:49.830Z,995.43
2017-02-01T04:20:30.418Z,995.39
2017-02-01T04:21:10.773Z,995.4
2017-02-01T04:21:51.449Z,995.4
2017-02-01T04:22:31.880Z,995.44
2017-02-01T04:23:12.361Z,995.39
2017-02-01T04:23:52.771Z,995.41
2017-02-01T04:24:33.160Z,995.41
2017-02-01T04:25:13.612Z,995.39
2017-02-01T04:25:54.066Z,995.45
2017-02-01T04:26:35.342Z,995.44
2017-02-01T04:27:16.345Z,995.43
2017-02-01T04:27:56.620Z,995.39
2017-02-01T04:28:37.333Z,995.44
2017-02-01T04:29:18.482Z,995.38
2017-02-01T04:29:59.057Z,995.41
2017-02-01T04:30:40.083Z,995.42
2017-02-01T04:31:20.684Z,995.42
2017-02-01T04:32:01.064Z,995.44
2017-02-01T04:32:42.282Z,995.46
2017-02-01T04:33:22.646Z,995.44
2017-02-01T04:34:03.137Z,995.47
2017-02-01T04:34:43.580Z,995.47
2017-02-01T04:35:24.125Z,995.47
2017-02-01T04:36:04.555Z,995.45
2017-02-01T04:36:45.022Z,995.42
2017-02-01T04:37:25.481Z,995.36
2017-02-01T04:38:05.960Z,995.37
2017-02-01T04:38:46.376Z,995.4
2017-02-01T04:39:26.814Z,995.34
2017-02-01T04:40:07.293Z,995.36
2017-02-01T04:40:47.778Z,995.35
2017-02-01T04:41:28.222Z,995.35
2017-02-01T04:45:15.584Z,995.34
2017-02-01T04:45:56.051Z,995.3
2017-02-01T04:46:36.524Z,995.32
2017-02-01T04:47:16.993Z,995.29
2017-02-01T04:47:57.477Z,995.31
2017-02-01T04:48:37.947Z,995.26
2017-02-01T04:49:18.435Z,995.29
2017-02-01T04:49:58.928Z,995.24
2017-02-01T04:50:39.429Z,995.21
2017-02-01T04:51:19.901Z,995.22
2017-02-01T04:52:00.380Z,995.24
2017-02-01T04:52:40.842Z,995.21
2017-02-01T04:53:21.273Z,995.18
2017-02-01T04:54:01.732Z,995.17
2017-02-01T04:54:42.184Z,995.15
2017-02-01T04:55:22.669Z,995.16
2017-02-01T04:56:03.121Z,995.13
2017-02-01T04:56:43.611Z,995.17
2017-02-01T04:57:24.096Z,995.14
2017-02-01T04:58:04.586Z,995.15
2017-02-01T04:58:45.066Z,995.14
2017-02-01T04:59:25.551Z,995.13
2017-02-01T05:00:06.040Z,995.15
2017-02-01T05:00:46.553Z,995.14
2017-02-01T05:01:26.999Z,995.1
2017-02-01T05:02:07.464Z,995.08
2017-02-01T05:02:47.952Z,995.11
2017-02-01T05:03:28.413Z,995.14
2017-02-01T05:04:08.875Z,995.1
2017-02-01T05:04:49.353Z,995.12
2017-02-01T05:05:29.841Z,995.12
2017-02-01T05:06:10.333Z,995.09
2017-02-01T05:06:50.792Z,995.06
2017-02-01T05:07:31.257Z,995.02
2017-02-01T05:08:11.746Z,995.03
2017-02-01T05:08:52.243Z,995.06
2017-02-01T05:09:32.696Z,995.03
2017-02-01T05:10:13.165Z,995.05
2017-02-01T05:10:53.637Z,995.03
2017-02-01T05:11:34.098Z,995.06
2017-02-01T05:12:14.548Z,995.08
2017-02-01T05:12:55.010Z,995.07
2017-02-01T05:13:35.473Z,995.1
2017-02-01T05:14:15.903Z,995.1
2017-02-01T05:14:56.387Z,995.09
2017-02-01T05:15:36.845Z,995.1
2017-02-01T05:16:17.349Z,995.12
2017-02-01T05:16:57.779Z,995.1
2017-02-01T05:17:38.203Z,995.11
2017-02-01T05:19:30.845Z,995.12
2017-02-01T05:20:11.313Z,995.14
2017-02-01T05:20:51.787Z,995.15
2017-02-01T05:21:32.268Z,995.16
2017-02-01T05:22:12.745Z,995.13
2017-02-01T05:22:53.186Z,995.1
2017-02-01T05:23:33.656Z,995.14
2017-02-01T05:24:14.140Z,995.09
2017-02-01T05:24:54.615Z,995.12
2017-02-01T05:25:35.109Z,995.14
2017-02-01T05:26:15.569Z,995.1
2017-02-01T05:26:56.056Z,995.14
2017-02-01T05:27:36.538Z,995.14
2017-02-01T05:28:17.016Z,995.1
2017-02-01T05:30:14.752Z,995.18
2017-02-01T05:30:55.245Z,995.17
2017-02-01T05:31:35.703Z,995.18
2017-02-01T05:32:16.187Z,995.23
2017-02-01T05:32:56.696Z,995.22
2017-02-01T05:33:37.113Z,995.19
2017-02-01T05:34:17.573Z,995.21
2017-02-01T05:34:58.039Z,995.21
2017-02-01T05:35:38.504Z,995.19
2017-02-01T05:37:31.153Z,995.22
2017-02-01T05:38:11.650Z,995.27
2017-02-01T05:38:52.127Z,995.27
2017-02-01T05:39:32.617Z,995.26
2017-02-01T05:41:45.372Z,995.25
2017-02-01T05:42:25.848Z,995.25
2017-02-01T05:43:06.366Z,995.29
2017-02-01T05:43:46.811Z,995.31
2017-02-01T05:44:27.263Z,995.31
2017-02-01T05:45:07.750Z,995.29
2017-02-01T05:45:48.239Z,995.24
2017-02-01T05:46:28.690Z,995.28
2017-02-01T05:47:09.134Z,995.24
2017-02-01T05:47:49.602Z,995.27
2017-02-01T05:48:30.090Z,995.26
2017-02-01T05:49:10.533Z,995.26
2017-02-01T05:49:50.977Z,995.24
2017-02-01T05:50:31.451Z,995.25
2017-02-01T05:51:11.896Z,995.26
2017-02-01T05:51:52.356Z,995.27
2017-02-01T05:52:32.770Z,995.24
2017-02-01T05:53:13.283Z,995.28
2017-02-01T05:53:53.722Z,995.26
2017-02-01T05:54:34.192Z,995.24
2017-02-01T05:55:14.654Z,995.26
2017-02-01T05:55:55.116Z,995.27
2017-02-01T05:56:35.587Z,995.29
2017-02-01T05:57:16.025Z,995.27
2017-02-01T05:57:56.461Z,995.29
2017-02-01T05:58:36.922Z,995.28
2017-02-01T05:59:17.365Z,995.28
2017-02-01T05:59:57.816Z,995.31
2017-02-01T06:00:38.257Z,995.31
2017-02-01T06:01:18.699Z,995.31
2017-02-01T06:01:59.159Z,995.34
2017-02-01T06:02:39.634Z,995.32
2017-02-01T06:03:20.088Z,995.3
2017-02-01T06:04:00.528Z,995.34
2017-02-01T06:04:40.986Z,995.28
2017-02-01T06:05:21.443Z,995.33
2017-02-01T06:06:01.894Z,995.33
2017-02-01T06:06:42.366Z,995.29
2017-02-01T06:07:22.859Z,995.35
2017-02-01T06:08:03.302Z,995.36
2017-02-01T06:08:44.727Z,995.34
2017-02-01T06:09:25.229Z,995.36
2017-02-01T06:11:39.014Z,995.33
2017-02-01T06:12:19.502Z,995.33
2017-02-01T06:12:59.995Z,995.26
2017-02-01T06:13:40.484Z,995.26
2017-02-01T06:14:20.922Z,995.26
2017-02-01T06:15:01.349Z,995.28
2017-02-01T06:15:41.829Z,995.25
2017-02-01T06:16:22.272Z,995.31
2017-02-01T06:17:02.772Z,995.31
2017-02-01T06:17:43.235Z,995.33
2017-02-01T06:18:23.661Z,995.33
2017-02-01T06:19:04.114Z,995.33
2017-02-01T06:19:44.565Z,995.33
2017-02-01T06:20:25.010Z,995.37
2017-02-01T06:21:05.453Z,995.33
2017-02-01T06:21:45.923Z,995.38
2017-02-01T06:22:26.387Z,995.41
2017-02-01T06:23:06.837Z,995.34
2017-02-01T06:23:47.289Z,995.37
2017-02-01T06:24:27.766Z,995.4
2017-02-01T06:25:08.250Z,995.42
2017-02-01T06:25:48.699Z,995.39
2017-02-01T06:26:29.202Z,995.38
2017-02-01T06:27:09.660Z,995.35
2017-02-01T06:27:50.139Z,995.35
2017-02-01T06:28:30.616Z,995.34
2017-02-01T06:29:11.073Z,995.36
2017-02-01T06:29:51.533Z,995.37
2017-02-01T06:30:31.997Z,995.35
2017-02-01T06:31:12.442Z,995.3
2017-02-01T06:31:52.925Z,995.35
2017-02-01T06:32:33.341Z,995.31
2017-02-01T06:33:13.798Z,995.3
2017-02-01T06:33:54.266Z,995.31
2017-02-01T06:34:34.694Z,995.34
2017-02-01T06:35:15.192Z,995.27
2017-02-01T06:35:55.655Z,995.26
2017-02-01T06:36:36.097Z,995.25
2017-02-01T06:37:16.590Z,995.23
2017-02-01T06:37:57.060Z,995.17
2017-02-01T06:38:37.510Z,995.22
2017-02-01T06:39:17.973Z,995.23
2017-02-01T06:39:58.436Z,995.18
2017-02-01T06:40:38.903Z,995.19
2017-02-01T06:41:19.334Z,995.19
2017-02-01T06:41:59.845Z,995.23
2017-02-01T06:42:40.264Z,995.24
2017-02-01T06:43:20.719Z,995.24
2017-02-01T06:44:01.205Z,995.24
2017-02-01T06:44:41.658Z,995.31
2017-02-01T06:45:22.105Z,995.24
2017-02-01T06:46:02.556Z,995.27
2017-02-01T06:46:43.001Z,995.25
2017-02-01T06:47:23.472Z,995.28
2017-02-01T06:48:03.952Z,995.29
2017-02-01T06:48:44.427Z,995.3
2017-02-01T06:49:24.883Z,995.33
2017-02-01T06:50:05.383Z,995.35
2017-02-01T06:50:45.856Z,995.3
2017-02-01T06:51:26.290Z,995.33
2017-02-01T06:52:06.762Z,995.31
2017-02-01T06:52:47.192Z,995.33
2017-02-01T06:53:27.634Z,995.37
2017-02-01T06:54:08.110Z,995.32
2017-02-01T06:54:48.619Z,995.32
2017-02-01T06:55:29.081Z,995.29
2017-02-01T06:56:09.572Z,995.29
2017-02-01T06:56:50.052Z,995.34
2017-02-01T06:57:30.532Z,995.33
2017-02-01T06:58:11.018Z,995.34
2017-02-01T06:58:51.454Z,995.29
2017-02-01T06:59:31.920Z,995.34
2017-02-01T07:00:12.406Z,995.36
2017-02-01T07:00:52.884Z,995.28
2017-02-01T07:01:33.353Z,995.28
2017-02-01T07:02:13.828Z,995.33
2017-02-01T07:02:54.287Z,995.31
2017-02-01T07:03:34.759Z,995.32
2017-02-01T07:04:15.203Z,995.28
2017-02-01T07:04:55.668Z,995.32
2017-02-01T07:05:36.099Z,995.32
2017-02-01T07:07:28.927Z,995.26
2017-02-01T07:08:09.407Z,995.27
2017-02-01T07:08:49.873Z,995.29
2017-02-01T07:09:30.324Z,995.24
2017-02-01T07:10:10.806Z,995.23
2017-02-01T07:10:51.284Z,995.25
2017-02-01T07:11:31.727Z,995.26
2017-02-01T07:12:12.190Z,995.26
2017-02-01T07:12:52.666Z,995.25
2017-02-01T07:15:05.749Z,995.25
2017-02-01T07:15:46.218Z,995.23
2017-02-01T07:16:26.699Z,995.31
2017-02-01T07:17:07.199Z,995.29
2017-02-01T07:17:47.679Z,995.25
2017-02-01T07:18:28.151Z,995.31
2017-02-01T07:20:26.466Z,995.35
2017-02-01T07:21:06.947Z,995.35
2017-02-01T07:21:47.439Z,995.34
2017-02-01T07:22:27.916Z,995.37
2017-02-01T07:23:08.372Z,995.32
2017-02-01T07:23:48.812Z,995.37
2017-02-01T07:24:29.309Z,995.35
2017-02-01T07:25:09.747Z,995.37
2017-02-01T07:25:50.203Z,995.4
2017-02-01T07:26:30.665Z,995.37
2017-02-01T07:27:11.116Z,995.38
2017-02-01T07:27:51.558Z,995.41
2017-02-01T07:28:32.032Z,995.39
2017-02-01T07:29:12.503Z,995.37
2017-02-01T07:29:52.921Z,995.4
2017-02-01T07:30:33.356Z,995.4
2017-02-01T07:31:13.884Z,995.39
2017-02-01T07:31:54.318Z,995.39
2017-02-01T07:32:34.781Z,995.4
2017-02-01T07:33:15.281Z,995.4
2017-02-01T07:33:55.748Z,995.39
2017-02-01T07:34:36.234Z,995.4
2017-02-01T07:35:16.682Z,995.44
2017-02-01T07:35:57.116Z,995.41
2017-02-01T07:38:09.878Z,995.4
2017-02-01T07:38:50.377Z,995.45
2017-02-01T07:39:30.831Z,995.44
2017-02-01T07:40:11.294Z,995.38
2017-02-01T07:40:51.751Z,995.41
2017-02-01T07:41:32.236Z,995.4
2017-02-01T07:42:12.693Z,995.35
2017-02-01T07:42:53.118Z,995.39
2017-02-01T07:43:33.562Z,995.39
2017-02-01T07:44:14.009Z,995.42
2017-02-01T07:44:54.479Z,995.42
2017-02-01T07:45:34.932Z,995.42
2017-02-01T07:46:15.431Z,995.4
2017-02-01T07:46:55.870Z,995.43
2017-02-01T07:47:36.299Z,995.43
2017-02-01T07:48:16.756Z,995.43
2017-02-01T07:48:57.210Z,995.4
2017-02-01T07:49:37.692Z,995.42
2017-02-01T07:50:18.131Z,995.41
2017-02-01T07:50:58.609Z,995.4
2017-02-01T07:53:11.363Z,995.4
2017-02-01T07:53:51.832Z,995.44
2017-02-01T07:54:32.307Z,995.44
2017-02-01T07:55:12.780Z,995.44
2017-02-01T07:55:53.270Z,995.44
2017-02-01T07:56:33.698Z,995.47
2017-02-01T07:57:14.172Z,995.45
2017-02-01T07:57:54.651Z,995.47
2017-02-01T07:58:35.122Z,995.48
2017-02-01T07:59:15.557Z,995.45
2017-02-01T07:59:55.994Z,995.48
2017-02-01T08:00:36.437Z,995.51
2017-02-01T08:01:16.885Z,995.45
2017-02-01T08:01:57.347Z,995.48
2017-02-01T08:02:37.807Z,995.46
2017-02-01T08:03:18.292Z,995.5
2017-02-01T08:03:58.784Z,995.5
2017-02-01T08:04:39.282Z,995.47
2017-02-01T08:05:19.725Z,995.5
2017-02-01T08:06:00.184Z,995.5
2017-02-01T08:06:40.666Z,995.53
2017-02-01T08:07:21.144Z,995.54
2017-02-01T08:08:01.638Z,995.53
2017-02-01T08:08:42.122Z,995.5
2017-02-01T08:09:22.609Z,995.54
2017-02-01T08:10:03.091Z,995.55
2017-02-01T08:10:43.599Z,995.51
2017-02-01T08:11:24.043Z,995.5
2017-02-01T08:12:04.515Z,995.52
2017-02-01T08:12:45.005Z,995.52
2017-02-01T08:13:25.479Z,995.5
2017-02-01T08:14:05.952Z,995.54
2017-02-01T08:14:46.442Z,995.54
2017-02-01T08:15:26.936Z,995.53
2017-02-01T08:16:07.403Z,995.56
2017-02-01T08:16:47.848Z,995.56
2017-02-01T08:17:28.322Z,995.53
2017-02-01T08:18:08.805Z,995.57
2017-02-01T08:18:49.287Z,995.54
2017-02-01T08:19:29.776Z,995.54
2017-02-01T08:20:10.244Z,995.55
2017-02-01T08:20:50.756Z,995.5
2017-02-01T08:21:31.208Z,995.5
2017-02-01T08:22:11.649Z,995.52
2017-02-01T08:22:52.124Z,995.53
2017-02-01T08:23:32.592Z,995.59
2017-02-01T08:24:13.073Z,995.54
2017-02-01T08:24:53.571Z,995.56
2017-02-01T08:25:34.034Z,995.59
2017-02-01T08:26:14.513Z,995.57
2017-02-01T08:26:55.018Z,995.6
2017-02-01T08:27:35.437Z,995.61
2017-02-01T08:28:15.886Z,995.64
2017-02-01T08:28:56.325Z,995.61
2017-02-01T08:29:36.771Z,995.65
2017-02-01T08:30:17.246Z,995.63
2017-02-01T08:30:57.683Z,995.62
2017-02-01T08:31:38.194Z,995.66
2017-02-01T08:33:35.898Z,995.65
2017-02-01T08:34:16.382Z,995.66
2017-02-01T08:34:56.856Z,995.66
2017-02-01T08:35:37.342Z,995.66
2017-02-01T08:36:17.813Z,995.66
2017-02-01T08:36:58.299Z,995.64
2017-02-01T08:37:38.763Z,995.65
2017-02-01T08:38:19.201Z,995.71
2017-02-01T08:38:59.679Z,995.7
2017-02-01T08:39:40.179Z,995.7
2017-02-01T08:40:20.668Z,995.7
2017-02-01T08:41:01.139Z,995.71
2017-02-01T08:41:41.632Z,995.66
2017-02-01T08:42:22.120Z,995.69
2017-02-01T08:43:02.598Z,995.72
2017-02-01T08:43:43.084Z,995.7
2017-02-01T08:44:23.549Z,995.69
2017-02-01T08:45:04.030Z,995.7
2017-02-01T08:45:44.507Z,995.65
2017-02-01T08:46:24.989Z,995.65
2017-02-01T08:47:05.481Z,995.64
2017-02-01T08:47:45.943Z,995.67
2017-02-01T08:48:26.410Z,995.66
2017-02-01T08:49:06.875Z,995.67
2017-02-01T08:49:47.352Z,995.69
2017-02-01T08:50:27.822Z,995.72
2017-02-01T08:51:08.316Z,995.75